Terminal Aerodrome Forecast
Issued by NWS

Home | Current Version | Previous Version | Text Only | Print | Product List | Glossary On
Versions: 1 2 3 4 5 6 7 8 9 10 11 12 13
811
FTUS41 KPBZ 241732
TAFMGW
TAF
KMGW 241732Z 2418/2518 11010G16KT 6SM -RA OVC035
     FM250600 07004KT P6SM VCSH OVC025
     FM250900 05003KT 5SM BR VCSH OVC015
     FM251200 05006KT 3SM BR VCSH OVC008=

USA.gov is the U.S. government's official web portal to all federal, state and local government web resources and services.